Time;durP1;ratioP1;P1;durP2;ratioP2;P2;SDS_P1;SDS_P2;PMS_P1;PMS_P2;Temp;Humidity;BMP_temperature;BMP_pressure;BME280_temperature;BME280_humidity;BME280_pressure;Samples;Min_cycle;Max_cycle;Signal;HPM_P1;HPM_P2
2023/01/03 00:01:51;;;;;;;;;;;8.10;99.90;;;7.60;100.00;98296.81;4977125;28;19922;-39
2023/01/03 00:04:16;;;;;;;;;;;8.10;99.90;;;7.60;100.00;98304.69;4994231;28;19932;-39
2023/01/03 00:06:45;;;;;;;;;;;8.10;99.90;;;7.59;100.00;98305.56;4997555;28;19925;-39
2023/01/03 00:09:12;;;;;;;;;;;8.10;99.90;;;7.58;100.00;98309.09;4993586;28;19979;-39
2023/01/03 00:14:29;;;;;;;;;;;8.10;99.90;;;7.54;100.00;98325.78;4996260;28;19964;-39
2023/01/03 00:16:59;;;;;;;;;;;8.10;99.90;;;7.56;100.00;98329.25;4997404;28;19925;-39
2023/01/03 00:19:28;;;;;;;;;;;8.10;99.90;;;7.57;100.00;98330.97;4996154;28;20719;-40
2023/01/03 00:21:53;;;;;;;;;;;8.10;99.90;;;7.56;100.00;98326.63;4993722;28;19925;-39
2023/01/03 00:24:19;;;;;;;;;;;8.10;99.90;;;7.57;100.00;98324.00;4995576;28;20313;-39
2023/01/03 00:26:45;;;;;;;;;;;8.10;99.90;;;7.60;100.00;98315.19;4993796;28;19932;-39
2023/01/03 00:29:11;;;;;;;;;;;8.10;99.90;;;7.59;100.00;98331.81;4989226;28;20275;-39
2023/01/03 00:31:38;;;;;;;;;;;8.10;99.90;;;7.55;100.00;98325.72;4995759;28;19924;-39
2023/01/03 00:34:03;;;;;;;;;;;8.10;99.90;;;7.55;100.00;98324.88;4995001;28;19944;-39
2023/01/03 00:36:29;;;;;;;;;;;8.10;99.90;;;7.57;100.00;98323.09;4995662;28;21732;-39
2023/01/03 00:38:55;;;;;;;;;;;8.10;99.90;;;7.57;100.00;98318.75;4998395;28;19925;-39
2023/01/03 00:41:21;;;;;;;;;;;8.10;99.90;;;7.57;100.00;98320.47;4992750;28;20648;-39
2023/01/03 00:43:47;;;;;;;;;;;8.10;99.90;;;7.53;100.00;98317.00;4995710;28;19929;-39
2023/01/03 00:46:15;;;;;;;;;;;8.10;99.90;;;7.54;100.00;98331.03;4991784;28;19929;-39
2023/01/03 00:48:40;;;;;;;;;;;8.10;99.90;;;7.47;100.00;98324.97;4993511;28;19926;-39
2023/01/03 00:51:12;;;;;;;;;;;8.10;99.90;;;7.51;100.00;98325.78;4997816;28;19924;-39
2023/01/03 00:53:38;;;;;;;;;;;8.10;99.90;;;7.51;100.00;98324.03;4996235;28;19929;-39
2023/01/03 00:56:13;;;;;;;;;;;8.10;99.90;;;7.51;100.00;98320.53;4996812;28;19933;-39
2023/01/03 00:58:39;;;;;;;;;;;8.00;99.90;;;7.49;100.00;98323.19;4991222;28;20015;-39
2023/01/03 01:01:08;;;;;;;;;;;8.00;99.90;;;7.41;100.00;98318.00;4996282;28;19933;-39
2023/01/03 01:03:35;;;;;;;;;;;8.00;99.90;;;7.43;100.00;98316.25;4995095;28;19978;-39
2023/01/03 01:06:10;;;;;;;;;;;8.00;99.90;;;7.42;100.00;98311.00;4999491;28;20012;-39
2023/01/03 01:08:35;;;;;;;;;;;8.00;99.90;;;7.42;100.00;98314.50;4991880;28;19932;-39
2023/01/03 01:11:02;;;;;;;;;;;8.00;99.90;;;7.40;100.00;98313.63;4995277;28;19921;-39
2023/01/03 01:13:31;;;;;;;;;;;8.00;99.90;;;7.31;100.00;98305.00;4997633;28;19921;-39
2023/01/03 01:16:09;;;;;;;;;;;8.00;99.90;;;7.34;100.00;98304.94;5014913;28;20034;-39
2023/01/03 01:18:35;;;;;;;;;;;7.90;99.90;;;7.24;100.00;98315.53;5004004;28;19917;-39
2023/01/03 01:21:09;;;;;;;;;;;7.80;99.90;;;7.22;100.00;98321.69;4994497;28;19956;-39
2023/01/03 01:23:36;;;;;;;;;;;7.80;99.90;;;7.18;100.00;98323.47;4989397;28;19960;-39
2023/01/03 01:26:03;;;;;;;;;;;7.80;99.90;;;7.03;100.00;98306.13;4996249;28;19936;-39
2023/01/03 01:28:29;;;;;;;;;;;7.80;99.90;;;7.16;100.00;98332.22;4996382;28;20395;-39
2023/01/03 01:30:57;;;;;;;;;;;7.70;99.90;;;7.17;100.00;98340.06;4995689;28;19925;-39
2023/01/03 01:33:23;;;;;;;;;;;7.70;99.90;;;7.16;100.00;98335.72;4999931;28;20381;-39
2023/01/03 01:35:49;;;;;;;;;;;7.70;99.90;;;7.11;100.00;98334.91;4993916;28;19928;-39
2023/01/03 01:38:14;;;;;;;;;;;7.60;99.90;;;7.03;100.00;98341.94;4996058;28;20052;-39
2023/01/03 01:40:40;;;;;;;;;;;7.60;99.90;;;6.87;100.00;98307.09;4993191;28;19937;-39
2023/01/03 01:46:23;;;;;;;;;;;7.60;99.90;;;7.00;100.00;98332.34;4992176;28;20476;-39
2023/01/03 01:48:57;;;;;;;;;;;7.60;99.90;;;6.99;100.00;98337.63;4978938;28;19952;-39
2023/01/03 01:51:25;;;;;;;;;;;7.50;99.90;;;6.97;100.00;98342.88;5002218;28;19921;-39
2023/01/03 01:53:52;;;;;;;;;;;7.60;99.90;;;6.99;100.00;98350.72;4995555;28;20016;-39
2023/01/03 01:56:25;;;;;;;;;;;7.60;99.90;;;6.97;100.00;98361.22;4979638;28;19924;-39
2023/01/03 01:58:51;;;;;;;;;;;7.60;99.90;;;6.83;100.00;98336.84;4999095;28;20480;-39
2023/01/03 02:01:19;;;;;;;;;;;7.50;99.90;;;6.73;100.00;98322.94;4988195;28;19964;-39
2023/01/03 02:03:49;;;;;;;;;;;7.50;99.90;;;6.96;100.00;98348.13;4990858;28;19936;-39
2023/01/03 02:06:16;;;;;;;;;;;7.50;99.90;;;6.83;100.00;98318.50;4978255;28;20007;-39
2023/01/03 02:08:41;;;;;;;;;;;7.50;99.90;;;6.96;100.00;98329.75;4985459;28;19921;-39
2023/01/03 02:11:44;;;;;;;;;;;7.60;99.90;;;7.02;100.00;98343.69;4989273;28;19975;-39
2023/01/03 02:14:16;;;;;;;;;;;7.60;99.90;;;7.00;100.00;98345.47;4992997;28;20456;-39
2023/01/03 02:16:55;;;;;;;;;;;7.60;99.90;;;6.94;100.00;98340.25;5001994;28;19926;-39
2023/01/03 02:22:23;;;;;;;;;;;7.50;99.90;;;6.91;100.00;98352.53;5028219;28;19940;-51
2023/01/03 02:24:57;;;;;;;;;;;7.50;99.90;;;6.89;100.00;98352.53;5028411;28;19924;-52
2023/01/03 02:27:42;;;;;;;;;;;7.50;99.90;;;6.82;100.00;98358.69;5044087;28;19916;-53
2023/01/03 02:30:11;;;;;;;;;;;7.40;99.90;;;6.71;100.00;98364.00;5064274;28;19955;-53
2023/01/03 02:32:43;;;;;;;;;;;7.30;99.90;;;6.69;100.00;98364.03;5081971;28;20347;-50
2023/01/03 02:35:27;;;;;;;;;;;7.30;99.90;;;6.62;100.00;98353.56;5078385;28;20136;-53
2023/01/03 02:38:34;;;;;;;;;;;7.30;99.90;;;6.61;100.00;98359.72;5077231;28;20603;-53
2023/01/03 02:41:21;;;;;;;;;;;7.20;99.90;;;6.50;100.00;98358.03;5059084;28;20395;-52
2023/01/03 02:43:54;;;;;;;;;;;7.10;99.90;;;6.42;100.00;98351.94;5071719;28;19926;-53
2023/01/03 02:46:32;;;;;;;;;;;7.00;99.90;;;6.34;100.00;98350.25;5071614;28;19926;-52
2023/01/03 02:49:02;;;;;;;;;;;7.00;99.90;;;6.22;100.00;98352.03;5071242;28;20038;-53
2023/01/03 02:51:32;;;;;;;;;;;6.90;99.90;;;6.18;100.00;98350.31;5070380;28;19969;-54
2023/01/03 02:53:58;;;;;;;;;;;6.80;99.90;;;6.15;100.00;98339.84;5067557;28;20088;-52
2023/01/03 02:56:27;;;;;;;;;;;6.80;99.90;;;6.11;100.00;98346.84;5056339;28;19924;-52
2023/01/03 02:58:57;;;;;;;;;;;6.80;99.90;;;6.06;100.00;98352.97;5064269;28;19931;-52
2023/01/03 03:01:24;;;;;;;;;;;6.70;99.90;;;6.00;100.00;98358.25;5065055;28;19916;-52
2023/01/03 03:03:50;;;;;;;;;;;6.60;99.90;;;5.93;100.00;98358.22;5062793;28;19923;-53
2023/01/03 03:06:37;;;;;;;;;;;6.60;99.90;;;5.88;100.00;98357.34;5060252;28;19928;-54
2023/01/03 03:09:03;;;;;;;;;;;6.50;99.90;;;5.86;100.00;98359.09;5070217;28;19916;-52
2023/01/03 03:14:22;;;;;;;;;;;6.50;99.90;;;6.01;100.00;98362.59;5072349;28;20456;-49
2023/01/03 03:16:50;;;;;;;;;;;6.60;99.90;;;6.03;100.00;98369.59;5065876;28;19942;-52
2023/01/03 03:25:00;;;;;;;;;;;6.80;99.90;;;6.14;100.00;98356.44;5075858;28;19935;-53
2023/01/03 03:30:14;;;;;;;;;;;6.80;99.90;;;6.08;100.00;98345.97;5067755;28;19974;-53
2023/01/03 03:32:42;;;;;;;;;;;6.70;99.90;;;6.04;100.00;98336.41;5080385;28;20377;-53
2023/01/03 03:35:10;;;;;;;;;;;6.70;99.90;;;5.95;100.00;98336.41;5078044;28;19970;-53
2023/01/03 03:37:37;;;;;;;;;;;6.60;99.90;;;5.89;100.00;98343.41;5070034;28;19966;-52
2023/01/03 03:45:50;;;;;;;;;;;6.40;99.90;;;5.66;100.00;98346.06;5068809;28;19958;-54
2023/01/03 03:48:27;;;;;;;;;;;6.30;99.90;;;5.59;100.00;98346.97;5069006;28;19974;-53
2023/01/03 03:51:13;;;;;;;;;;;6.30;99.90;;;5.50;100.00;98349.59;5070671;28;22543;-54
2023/01/03 03:53:40;;;;;;;;;;;6.20;99.90;;;5.50;100.00;98353.06;5068365;28;19916;-51
2023/01/03 03:56:09;;;;;;;;;;;6.10;99.90;;;5.58;100.00;98354.81;5069420;28;19974;-51
2023/01/03 03:58:41;;;;;;;;;;;6.10;99.90;;;5.60;100.00;98360.91;5065393;28;20014;-50
2023/01/03 04:01:08;;;;;;;;;;;6.10;99.90;;;5.51;100.00;98362.69;5061605;28;19916;-51
2023/01/03 04:03:35;;;;;;;;;;;6.20;99.90;;;5.43;100.00;98369.66;5065748;28;19924;-51
2023/01/03 04:06:07;;;;;;;;;;;6.10;99.90;;;5.37;100.00;98363.59;5065532;28;19924;-49
2023/01/03 04:08:33;;;;;;;;;;;6.00;99.90;;;5.22;100.00;98359.19;5067121;28;19985;-49
2023/01/03 04:11:04;;;;;;;;;;;6.00;99.90;;;5.27;100.00;98371.41;5068507;28;20508;-50
2023/01/03 04:13:37;;;;;;;;;;;5.90;99.90;;;5.20;100.00;98367.03;5062299;28;19916;-51
2023/01/03 04:16:03;;;;;;;;;;;5.90;99.90;;;5.26;100.00;98366.19;5070536;28;19974;-52
2023/01/03 04:18:29;;;;;;;;;;;5.90;99.90;;;5.28;100.00;98365.31;5071885;28;19931;-49
2023/01/03 04:20:55;;;;;;;;;;;5.90;99.90;;;5.21;100.00;98357.47;5074231;28;19916;-52
2023/01/03 04:23:20;;;;;;;;;;;5.90;99.90;;;5.13;100.00;98368.81;5071501;28;19926;-49
2023/01/03 04:25:48;;;;;;;;;;;5.90;99.90;;;5.12;100.00;98366.19;5067916;28;20675;-51
2023/01/03 04:28:14;;;;;;;;;;;5.80;99.90;;;5.12;100.00;98374.91;5070060;28;19920;-52
2023/01/03 04:30:40;;;;;;;;;;;5.80;99.90;;;5.11;100.00;98372.28;5066738;28;19920;-50
2023/01/03 04:33:05;;;;;;;;;;;5.80;99.90;;;5.20;100.00;98371.41;5070460;28;19989;-51
2023/01/03 04:35:31;;;;;;;;;;;5.80;99.90;;;5.11;100.00;98367.91;5066606;28;19924;-53
2023/01/03 04:37:57;;;;;;;;;;;5.80;99.90;;;5.14;100.00;98367.06;5074702;28;19967;-53
2023/01/03 04:40:22;;;;;;;;;;;5.80;99.90;;;5.08;100.00;98364.44;5070608;28;19931;-50
2023/01/03 04:45:32;;;;;;;;;;;5.70;99.90;;;5.04;100.00;98376.63;5064023;28;19982;-49
2023/01/03 04:47:58;;;;;;;;;;;5.70;99.90;;;4.93;100.00;98378.38;5071542;28;19955;-48
2023/01/03 04:50:23;;;;;;;;;;;5.60;99.90;;;4.90;100.00;98388.81;5071514;28;20059;-49
2023/01/03 04:52:49;;;;;;;;;;;5.60;99.90;;;4.84;100.00;98383.59;5072179;28;19945;-52
2023/01/03 04:55:15;;;;;;;;;;;5.50;99.90;;;4.92;100.00;98389.72;5065598;28;20488;-51
2023/01/03 04:57:40;;;;;;;;;;;5.60;99.90;;;4.84;100.00;98378.34;5060487;28;19964;-50
2023/01/03 05:00:07;;;;;;;;;;;5.50;99.90;;;4.78;100.00;98379.22;5068180;28;19973;-51
2023/01/03 05:02:33;;;;;;;;;;;5.50;99.90;;;4.84;100.00;98375.75;5070224;28;20036;-50
2023/01/03 05:04:59;;;;;;;;;;;5.50;99.90;;;4.83;100.00;98372.25;5067481;28;20019;-50
2023/01/03 05:07:26;;;;;;;;;;;5.50;99.90;;;4.92;100.00;98376.63;5059562;28;20511;-52
2023/01/03 05:09:52;;;;;;;;;;;5.60;99.90;;;4.93;100.00;98368.78;5063720;28;19916;-53
2023/01/03 05:12:18;;;;;;;;;;;5.60;99.90;;;4.97;100.00;98373.16;5067501;28;19931;-51
2023/01/03 05:14:43;;;;;;;;;;;5.60;99.90;;;5.04;100.00;98368.78;5072043;28;19967;-50
2023/01/03 05:17:09;;;;;;;;;;;5.70;99.90;;;5.05;100.00;98367.94;5069596;28;19931;-53
2023/01/03 05:25:48;;;;;;;;;;;5.70;99.90;;;5.06;100.00;98379.25;5069215;28;19927;-50
2023/01/03 05:27:49;;;;;;;;;;;5.70;99.90;;;5.08;100.00;98375.78;5078995;28;19983;-52
2023/01/03 05:30:15;;;;;;;;;;;5.80;99.90;;;5.05;100.00;98361.84;5076897;28;19955;-51
2023/01/03 05:32:41;;;;;;;;;;;5.80;99.90;;;5.13;100.00;98368.81;5082637;28;20039;-50
2023/01/03 05:35:07;;;;;;;;;;;5.80;99.90;;;5.18;100.00;98376.63;5084263;27;19912;-50
2023/01/03 05:37:32;;;;;;;;;;;5.80;99.90;;;5.19;100.00;98382.72;5075928;28;20274;-49
2023/01/03 05:39:58;;;;;;;;;;;5.80;99.90;;;5.18;100.00;98381.00;5081082;28;19911;-49
2023/01/03 05:42:23;;;;;;;;;;;5.80;99.90;;;5.20;100.00;98377.50;5080438;28;20321;-52
2023/01/03 05:44:49;;;;;;;;;;;5.90;99.90;;;5.22;100.00;98390.59;5073986;28;20472;-50
2023/01/03 05:47:14;;;;;;;;;;;5.90;99.90;;;5.16;100.00;98381.88;5071154;28;19912;-52
2023/01/03 05:49:40;;;;;;;;;;;5.80;99.90;;;5.15;100.00;98395.84;5071882;28;19920;-49
2023/01/03 05:52:06;;;;;;;;;;;5.80;99.90;;;5.09;100.00;98395.81;5083014;28;19936;-50
2023/01/03 05:54:31;;;;;;;;;;;5.70;99.90;;;5.03;100.00;98398.44;5072522;28;20367;-52
2023/01/03 05:56:57;;;;;;;;;;;5.70;99.90;;;5.02;100.00;98403.66;5073101;28;19931;-52
2023/01/03 05:59:23;;;;;;;;;;;5.60;99.90;;;4.95;100.00;98395.81;5073130;28;19920;-50
2023/01/03 06:01:49;;;;;;;;;;;5.60;99.90;;;4.94;100.00;98399.28;5076303;28;20410;-50
2023/01/03 06:04:14;;;;;;;;;;;5.60;99.90;;;4.94;100.00;98399.28;5074399;28;19912;-49
2023/01/03 06:06:40;;;;;;;;;;;5.60;99.90;;;4.92;100.00;98414.09;5071186;28;19927;-53
2023/01/03 06:09:06;;;;;;;;;;;5.60;99.90;;;4.89;100.00;98414.09;5066926;28;19920;-48
2023/01/03 06:11:31;;;;;;;;;;;5.60;99.90;;;4.93;100.00;98410.59;5064728;28;19951;-49
2023/01/03 06:13:57;;;;;;;;;;;5.60;99.90;;;5.00;100.00;98419.34;5065526;28;19920;-50
2023/01/03 06:19:07;;;;;;;;;;;5.60;99.90;;;5.04;100.00;98414.97;5074011;28;19923;-50
2023/01/03 06:21:33;;;;;;;;;;;5.70;99.90;;;5.03;100.00;98411.50;5072005;28;19924;-51
2023/01/03 06:23:59;;;;;;;;;;;5.70;99.90;;;5.05;100.00;98406.28;5073843;28;20560;-51
2023/01/03 06:26:25;;;;;;;;;;;5.70;99.90;;;5.02;100.00;98414.97;5074998;28;19928;-50
2023/01/03 06:28:51;;;;;;;;;;;5.70;99.90;;;5.07;100.00;98426.31;5072588;28;20014;-51
2023/01/03 06:31:17;;;;;;;;;;;5.70;99.90;;;5.07;100.00;98418.47;5065792;28;20442;-52
2023/01/03 06:33:42;;;;;;;;;;;5.70;99.90;;;5.07;100.00;98420.22;5078931;28;19924;-48
2023/01/03 06:36:13;;;;;;;;;;;5.70;99.90;;;5.07;100.00;98421.09;5073250;28;19955;-53
2023/01/03 06:38:38;;;;;;;;;;;5.70;99.90;;;5.04;100.00;98422.81;5071510;28;19963;-51
2023/01/03 06:41:04;;;;;;;;;;;5.70;99.90;;;4.96;100.00;98418.47;5074879;28;19955;-50
2023/01/03 06:43:30;;;;;;;;;;;5.60;99.90;;;4.99;100.00;98435.91;5069669;28;20290;-51
2023/01/03 06:54:24;;;;;;;;;;;5.50;99.90;;;4.88;100.00;98432.38;5082310;28;20468;-48
2023/01/03 06:56:50;;;;;;;;;;;5.50;99.90;;;4.86;100.00;98434.13;5069959;28;19928;-50
2023/01/03 06:59:17;;;;;;;;;;;5.50;99.90;;;4.75;100.00;98428.88;5076278;28;19927;-50
2023/01/03 07:01:44;;;;;;;;;;;5.40;99.90;;;4.77;100.00;98448.03;5073334;28;19922;-51
2023/01/03 07:04:10;;;;;;;;;;;5.40;99.90;;;4.70;100.00;98441.94;5072617;28;19924;-52
2023/01/03 07:06:35;;;;;;;;;;;5.30;99.90;;;4.68;100.00;98445.41;5067980;28;19924;-47
2023/01/03 07:09:01;;;;;;;;;;;5.30;99.90;;;4.62;100.00;98450.59;5069018;28;19938;-52
2023/01/03 07:11:27;;;;;;;;;;;5.20;99.90;;;4.61;100.00;98451.47;5066335;28;20414;-50
2023/01/03 07:13:58;;;;;;;;;;;5.20;99.90;;;4.56;100.00;98451.47;5065407;28;20430;-48
2023/01/03 07:16:29;;;;;;;;;;;5.20;99.90;;;4.52;100.00;98449.69;5065107;28;19926;-52
2023/01/03 07:18:55;;;;;;;;;;;5.20;99.90;;;4.52;100.00;98452.31;5072763;28;19955;-49
2023/01/03 07:21:22;;;;;;;;;;;5.10;99.90;;;4.46;100.00;98455.75;5076269;28;19924;-52
2023/01/03 07:23:48;;;;;;;;;;;5.10;99.90;;;4.47;100.00;98459.25;5070960;28;19920;-51
2023/01/03 07:26:13;;;;;;;;;;;5.10;99.90;;;4.46;100.00;98458.38;5077934;28;19930;-48
2023/01/03 07:28:39;;;;;;;;;;;5.10;99.90;;;4.46;100.00;98466.22;5077102;28;19916;-50
2023/01/03 07:31:05;;;;;;;;;;;5.10;99.90;;;4.47;100.00;98462.75;5071684;28;20299;-49
2023/01/03 07:33:31;;;;;;;;;;;5.10;99.90;;;4.47;100.00;98469.69;5074779;28;20473;-49
2023/01/03 07:36:08;;;;;;;;;;;5.10;99.90;;;4.50;100.00;98467.97;5075538;28;20387;-52
2023/01/03 07:38:35;;;;;;;;;;;5.20;99.90;;;4.56;100.00;98468.00;5072075;28;19931;-49
2023/01/03 07:41:02;;;;;;;;;;;5.20;99.90;;;4.63;100.00;98463.69;5071167;28;19924;-48
2023/01/03 07:43:37;;;;;;;;;;;5.30;99.90;;;4.69;100.00;98468.91;5066998;28;19920;-48
2023/01/03 07:46:13;;;;;;;;;;;5.30;99.90;;;4.82;100.00;98474.19;5071513;28;19926;-53
2023/01/03 07:48:39;;;;;;;;;;;5.40;99.90;;;4.90;100.00;98472.47;5075097;28;19931;-52
2023/01/03 07:51:06;;;;;;;;;;;5.50;99.90;;;5.01;100.00;98481.22;5067492;28;19920;-50
2023/01/03 07:53:32;;;;;;;;;;;5.60;99.90;;;5.11;100.00;98477.75;5072498;28;20316;-50
2023/01/03 07:56:18;;;;;;;;;;;5.70;99.90;;;5.25;100.00;98487.38;5071771;28;23130;-51
2023/01/03 07:58:44;;;;;;;;;;;5.80;99.90;;;5.35;100.00;98484.78;5069704;28;20324;-52
2023/01/03 08:01:12;;;;;;;;;;;5.90;99.90;;;5.46;100.00;98478.69;5064816;28;19924;-53
2023/01/03 08:03:39;;;;;;;;;;;6.00;99.90;;;5.53;100.00;98497.00;5069653;28;20050;-52
2023/01/03 08:06:06;;;;;;;;;;;6.10;99.90;;;5.63;100.00;98487.41;5075896;28;19986;-51
2023/01/03 08:08:32;;;;;;;;;;;6.20;99.90;;;5.67;100.00;98488.28;5075701;28;20411;-51
2023/01/03 08:13:43;;;;;;;;;;;6.30;99.90;;;5.85;100.00;98500.47;5070399;28;20004;-48
2023/01/03 08:16:10;;;;;;;;;;;6.40;99.90;;;5.87;100.00;98496.16;5068725;28;20276;-49
2023/01/03 08:18:36;;;;;;;;;;;6.50;99.90;;;5.97;100.00;98500.50;5074046;28;20206;-50
2023/01/03 08:21:02;;;;;;;;;;;6.50;99.90;;;6.04;100.00;98506.63;5062052;22;20025;-36
2023/01/03 08:23:28;;;;;;;;;;;6.60;99.90;;;6.07;100.00;98504.00;5031134;28;19960;-37
2023/01/03 08:26:11;;;;;;;;;;;6.70;99.90;;;6.20;100.00;98505.72;5032448;28;19975;-37
2023/01/03 08:28:38;;;;;;;;;;;6.80;99.90;;;6.22;100.00;98493.50;5032904;28;19917;-37
2023/01/03 08:31:08;;;;;;;;;;;6.80;99.90;;;6.28;100.00;98488.25;5031107;28;19932;-36
2023/01/03 08:33:37;;;;;;;;;;;6.90;99.90;;;6.42;100.00;98493.44;5026904;28;19916;-36
2023/01/03 08:36:04;;;;;;;;;;;7.00;99.90;;;6.49;100.00;98499.53;5011382;28;19928;-37
2023/01/03 08:38:33;;;;;;;;;;;7.10;99.90;;;6.56;100.00;98497.78;5030627;28;19961;-38
2023/01/03 08:41:00;;;;;;;;;;;7.10;99.90;;;6.63;100.00;98500.38;5012544;28;20399;-38
2023/01/03 08:43:27;;;;;;;;;;;7.20;99.90;;;6.67;100.00;98512.56;5017659;28;20000;-39
2023/01/03 08:45:52;;;;;;;;;;;7.20;99.90;;;6.73;100.00;98516.06;5010381;28;19991;-38
2023/01/03 08:48:19;;;;;;;;;;;7.30;99.90;;;6.76;100.00;98516.06;5030786;28;19921;-38
2023/01/03 08:50:45;;;;;;;;;;;7.30;99.90;;;6.79;100.00;98516.91;5012947;28;21481;-38
2023/01/03 08:53:10;;;;;;;;;;;7.30;99.90;;;6.85;100.00;98523.88;5013350;28;19931;-38
2023/01/03 08:55:36;;;;;;;;;;;7.40;99.90;;;6.89;100.00;98517.75;5036038;28;19936;-38
2023/01/03 08:58:02;;;;;;;;;;;7.40;99.90;;;6.95;100.00;98524.72;5027580;28;19917;-38
2023/01/03 09:00:27;;;;;;;;;;;7.50;99.90;;;7.01;100.00;98528.19;5033698;28;20709;-38
2023/01/03 09:02:56;;;;;;;;;;;7.50;99.90;;;7.04;100.00;98527.31;5032730;28;19931;-38
2023/01/03 09:05:21;;;;;;;;;;;7.60;99.90;;;7.03;100.00;98515.06;5024239;28;19924;-39
2023/01/03 09:07:47;;;;;;;;;;;7.60;99.90;;;7.13;100.00;98527.25;5015732;28;19932;-39
2023/01/03 09:10:13;;;;;;;;;;;7.70;99.90;;;7.17;100.00;98515.84;5032280;28;20247;-39
2023/01/03 09:12:38;;;;;;;;;;;7.70;99.90;;;7.22;100.00;98531.59;5033626;28;20459;-39
2023/01/03 09:15:05;;;;;;;;;;;7.80;99.90;;;7.30;100.00;98531.53;5030734;28;19917;-38
2023/01/03 09:17:31;;;;;;;;;;;7.80;99.90;;;7.35;100.00;98538.50;5032889;28;19916;-39
2023/01/03 09:19:57;;;;;;;;;;;7.80;99.90;;;7.36;100.00;98540.25;5025831;28;19931;-39
2023/01/03 09:22:22;;;;;;;;;;;7.90;99.90;;;7.42;100.00;98545.47;5032591;28;20276;-39
2023/01/03 09:24:48;;;;;;;;;;;7.90;99.90;;;7.40;100.00;98533.25;5026638;28;19920;-39
2023/01/03 09:27:14;;;;;;;;;;;7.90;99.90;;;7.38;100.00;98535.88;5026135;28;20357;-39
2023/01/03 09:29:39;;;;;;;;;;;7.90;99.90;;;7.20;100.00;98517.63;5037470;28;19923;-39
2023/01/03 09:32:05;;;;;;;;;;;7.90;99.90;;;7.34;100.00;98543.75;5032357;28;19964;-39
2023/01/03 09:34:30;;;;;;;;;;;7.90;99.90;;;7.33;100.00;98545.50;5027307;28;20003;-39
2023/01/03 09:36:56;;;;;;;;;;;7.80;99.90;;;7.33;100.00;98549.91;5024271;28;20464;-39
2023/01/03 09:39:22;;;;;;;;;;;7.90;99.90;;;7.34;100.00;98560.41;5033935;28;20462;-39
2023/01/03 09:43:11;;;;;;;;;;;7.90;99.90;;;7.34;100.00;98552.53;5019631;28;20051;-37
2023/01/03 09:44:33;;;;;;;;;;;7.90;99.90;;;7.37;100.00;98565.59;5008076;28;19931;-37
2023/01/03 09:46:58;;;;;;;;;;;7.90;99.90;;;7.38;100.00;98558.63;5023373;28;19924;-36
2023/01/03 09:49:24;;;;;;;;;;;7.90;99.90;;;7.33;100.00;98550.75;5025746;28;20593;-37
2023/01/03 10:03:43;;;;;;;;;;;7.80;99.90;;;7.23;100.00;98560.44;5029346;28;20277;-39
2023/01/03 10:06:22;;;;;;;;;;;7.80;99.90;;;7.16;100.00;98556.13;5016589;28;20008;-40
2023/01/03 10:09:11;;;;;;;;;;;7.70;99.90;;;7.14;100.00;98554.34;4996611;28;19921;-39
2023/01/03 10:11:57;;;;;;;;;;;7.60;99.90;;;6.95;100.00;98528.22;5020205;28;20043;-39
2023/01/03 10:14:51;;;;;;;;;;;7.60;99.90;;;7.07;100.00;98559.66;5003783;28;19921;-39
2023/01/03 10:17:34;;;;;;;;;;;7.60;99.90;;;7.02;100.00;98564.03;5023545;28;19927;-39
2023/01/03 10:20:03;;;;;;;;;;;7.50;99.90;;;6.96;100.00;98565.81;5006593;28;19917;-38
2023/01/03 10:22:30;;;;;;;;;;;7.50;99.90;;;6.84;100.00;98572.84;5021027;28;20030;-39
2023/01/03 10:25:12;;;;;;;;;;;7.40;99.90;;;6.69;100.00;98560.66;5006525;28;19951;-39
2023/01/03 10:27:52;;;;;;;;;;;7.40;99.90;;;6.67;100.00;98558.91;5020004;28;19925;-38
2023/01/03 10:30:26;;;;;;;;;;;7.20;99.90;;;6.56;100.00;98555.44;5010723;28;20148;-39
2023/01/03 10:33:10;;;;;;;;;;;7.10;99.90;;;6.48;100.00;98563.34;5021729;28;20773;-39
2023/01/03 10:35:36;;;;;;;;;;;7.10;99.90;;;6.45;100.00;98565.94;5017025;28;19921;-39
2023/01/03 10:38:02;;;;;;;;;;;7.00;99.90;;;6.41;100.00;98559.84;5022007;28;19970;-39
2023/01/03 10:40:38;;;;;;;;;;;7.00;99.90;;;6.34;100.00;98565.97;5020721;28;19925;-39
2023/01/03 10:43:29;;;;;;;;;;;7.00;99.90;;;6.08;100.00;98517.09;5019416;28;19917;-38
2023/01/03 10:46:00;;;;;;;;;;;7.00;99.90;;;6.30;100.00;98562.47;5007492;28;19929;-37
2023/01/03 10:48:38;;;;;;;;;;;7.00;99.90;;;6.30;100.00;98548.53;5019116;28;20132;-37
2023/01/03 10:51:06;;;;;;;;;;;7.00;99.90;;;6.39;100.00;98553.75;5022799;28;20369;-37
2023/01/03 10:53:36;;;;;;;;;;;7.00;99.90;;;6.42;100.00;98539.75;5021891;28;19917;-38
2023/01/03 10:56:02;;;;;;;;;;;7.00;99.90;;;6.50;100.00;98528.38;4997248;28;19924;-38
2023/01/03 10:58:28;;;;;;;;;;;7.10;99.90;;;6.54;100.00;98524.00;5002899;28;19924;-37
2023/01/03 11:01:11;;;;;;;;;;;7.20;99.90;;;6.64;100.00;98522.19;5008911;28;19960;-38
2023/01/03 11:03:43;;;;;;;;;;;7.20;99.90;;;6.71;100.00;98534.41;5010535;28;20020;-37
2023/01/03 11:06:13;;;;;;;;;;;7.30;99.90;;;6.77;100.00;98523.06;5014596;28;19952;-37
2023/01/03 11:08:45;;;;;;;;;;;7.40;99.90;;;6.84;100.00;98515.16;5013611;28;19924;-38
2023/01/03 11:11:33;;;;;;;;;;;7.40;99.90;;;6.94;100.00;98526.47;5012532;28;19939;-37
2023/01/03 11:14:08;;;;;;;;;;;7.50;99.90;;;6.98;100.00;98525.59;5032772;28;20281;-37
2023/01/03 11:16:33;;;;;;;;;;;7.50;99.90;;;7.00;100.00;98523.84;5033083;28;20368;-38
2023/01/03 11:19:04;;;;;;;;;;;7.60;99.90;;;7.04;100.00;98522.94;5036765;28;20098;-38
2023/01/03 11:21:44;;;;;;;;;;;7.60;99.90;;;7.04;100.00;98512.44;5028986;28;20365;-38
2023/01/03 11:24:36;;;;;;;;;;;7.70;99.90;;;7.15;100.00;98524.63;5032105;28;20330;-38
2023/01/03 11:27:10;;;;;;;;;;;7.70;99.90;;;7.19;100.00;98529.84;5036723;28;19924;-37
2023/01/03 11:29:58;;;;;;;;;;;7.80;99.90;;;7.31;100.00;98522.81;5017501;28;19979;-36
2023/01/03 11:32:38;;;;;;;;;;;7.90;99.90;;;7.20;100.00;98501.88;5003436;28;19925;-38
2023/01/03 11:35:32;;;;;;;;;;;7.90;99.90;;;7.39;100.00;98524.50;5031637;28;19916;-36
2023/01/03 11:38:11;;;;;;;;;;;8.00;99.90;;;7.41;100.00;98525.38;5027116;28;19924;-37
2023/01/03 11:40:47;;;;;;;;;;;8.00;99.90;;;7.46;100.00;98517.44;5026897;28;20433;-38
2023/01/03 11:43:12;;;;;;;;;;;8.10;99.90;;;7.51;100.00;98512.16;5012086;28;19923;-37
2023/01/03 11:46:00;;;;;;;;;;;8.10;99.90;;;7.63;100.00;98515.56;5031331;28;19921;-37
2023/01/03 11:49:02;;;;;;;;;;;8.20;99.90;;;7.80;100.00;98509.31;5028216;28;19928;-37
2023/01/03 11:51:35;;;;;;;;;;;8.30;99.90;;;7.91;100.00;98502.22;5028414;28;19921;-37
2023/01/03 11:54:08;;;;;;;;;;;8.50;99.90;;;8.02;100.00;98510.91;5028741;28;19939;-37
2023/01/03 11:56:39;;;;;;;;;;;8.60;99.90;;;8.14;100.00;98501.16;5019279;28;19917;-37
2023/01/03 11:59:27;;;;;;;;;;;8.70;99.90;;;8.27;100.00;98502.75;5008768;28;20266;-37
2023/01/03 12:02:18;;;;;;;;;;;8.90;99.90;;;8.37;100.00;98506.19;5004477;28;19925;-39
2023/01/03 12:04:55;;;;;;;;;;;9.00;99.90;;;8.44;100.00;98501.75;5012452;28;20266;-39
2023/01/03 12:07:26;;;;;;;;;;;9.00;99.90;;;8.43;100.00;98494.75;5018296;28;19921;-39
2023/01/03 12:10:03;;;;;;;;;;;9.00;99.90;;;8.34;100.00;98500.94;5003905;28;20984;-39
2023/01/03 12:12:41;;;;;;;;;;;8.90;99.90;;;8.25;100.00;98493.16;5008235;28;20007;-39
2023/01/03 12:15:22;;;;;;;;;;;8.80;99.90;;;8.18;100.00;98487.06;5018875;28;19947;-39
2023/01/03 12:18:01;;;;;;;;;;;8.70;99.90;;;8.12;100.00;98488.00;5012563;28;20436;-39
2023/01/03 12:20:31;;;;;;;;;;;8.70;99.90;;;8.07;100.00;98494.22;5021412;28;21112;-39
2023/01/03 12:23:03;;;;;;;;;;;8.70;99.90;;;8.01;100.00;98484.63;5027226;28;20459;-39
2023/01/03 12:25:33;;;;;;;;;;;8.60;99.90;;;8.06;100.00;98481.94;5020373;28;19932;-39
2023/01/03 12:28:07;;;;;;;;;;;8.60;99.90;;;8.08;100.00;98480.19;5003518;28;20573;-38
2023/01/03 12:30:41;;;;;;;;;;;8.60;99.90;;;8.08;100.00;98488.94;5013578;28;19932;-38
2023/01/03 12:33:25;;;;;;;;;;;8.60;99.90;;;8.08;100.00;98485.44;4989344;28;19920;-38
2023/01/03 12:35:59;;;;;;;;;;;8.70;99.90;;;7.92;100.00;98455.81;5018338;28;19955;-38
2023/01/03 12:38:28;;;;;;;;;;;8.70;99.90;;;8.09;100.00;98484.53;5009068;28;19921;-38